createdAt,value
2022-10-10T00:01:36.228Z,4.07
2022-10-10T00:04:06.819Z,4.33
2022-10-10T00:06:35.369Z,3.80
2022-10-10T00:09:05.751Z,2.57
2022-10-10T00:11:34.487Z,2.43
2022-10-10T00:14:04.211Z,2.67
2022-10-10T00:16:32.708Z,3.00
2022-10-10T00:19:00.897Z,3.50
2022-10-10T00:21:29.259Z,2.90
2022-10-10T00:23:57.473Z,3.63
2022-10-10T00:26:25.860Z,5.47
2022-10-10T00:28:54.118Z,4.80
2022-10-10T00:31:23.763Z,5.27
2022-10-10T00:33:52.036Z,3.67
2022-10-10T00:36:21.464Z,2.90
2022-10-10T00:38:50.118Z,3.07
2022-10-10T00:41:18.361Z,3.43
2022-10-10T00:44:06.028Z,4.27
2022-10-10T00:46:36.195Z,3.17
2022-10-10T00:49:08.707Z,4.07
2022-10-10T00:51:37.140Z,2.43
2022-10-10T00:54:10.295Z,2.23
2022-10-10T00:56:44.725Z,6.13
2022-10-10T00:59:13.209Z,2.20
2022-10-10T01:01:43.869Z,3.23
2022-10-10T01:04:35.179Z,5.67
2022-10-10T01:07:07.746Z,2.47
2022-10-10T01:09:38.088Z,3.47
2022-10-10T01:12:19.876Z,2.80
2022-10-10T01:14:56.163Z,4.40
2022-10-10T01:17:32.593Z,5.20
2022-10-10T01:20:40.725Z,3.20
2022-10-10T01:24:08.289Z,2.63
2022-10-10T01:27:14.145Z,3.00
2022-10-10T01:29:49.017Z,3.23
2022-10-10T01:32:28.824Z,7.03
2022-10-10T01:35:08.363Z,3.03
2022-10-10T01:37:48.472Z,4.87
2022-10-10T01:40:26.685Z,5.07
2022-10-10T01:42:57.872Z,6.30
2022-10-10T01:45:28.757Z,3.00
2022-10-10T01:47:58.969Z,3.27
2022-10-10T01:50:29.043Z,3.73
2022-10-10T01:53:10.977Z,2.97
2022-10-10T01:55:57.402Z,3.93
2022-10-10T01:58:50.775Z,4.53
2022-10-10T02:01:28.591Z,5.03
2022-10-10T02:04:10.408Z,2.37
2022-10-10T02:06:43.229Z,2.67
2022-10-10T02:09:16.701Z,2.40
2022-10-10T02:11:45.871Z,2.73
2022-10-10T02:14:20.043Z,2.70
2022-10-10T02:16:54.474Z,3.00
2022-10-10T02:19:25.451Z,2.83
2022-10-10T02:21:56.003Z,2.43
2022-10-10T02:24:26.312Z,4.37
2022-10-10T02:27:00.297Z,3.10
2022-10-10T02:29:33.250Z,4.33
2022-10-10T02:32:07.530Z,4.23
2022-10-10T02:34:39.136Z,3.27
2022-10-10T02:37:13.398Z,2.87
2022-10-10T02:39:49.601Z,2.37
2022-10-10T02:42:20.513Z,4.03
2022-10-10T02:44:49.089Z,4.27
2022-10-10T02:47:18.893Z,4.63
2022-10-10T02:49:47.628Z,2.60
2022-10-10T02:52:17.725Z,4.77
2022-10-10T02:54:46.023Z,2.73
2022-10-10T02:57:14.823Z,4.23
2022-10-10T02:59:43.275Z,2.70
2022-10-10T03:02:11.611Z,2.43
2022-10-10T03:04:42.147Z,2.00
2022-10-10T03:07:10.692Z,2.53
2022-10-10T03:09:38.972Z,3.40
2022-10-10T03:12:07.666Z,4.10
2022-10-10T03:14:36.053Z,3.23
2022-10-10T03:17:04.302Z,1.90
2022-10-10T03:19:32.546Z,2.57
2022-10-10T03:22:02.155Z,4.47
2022-10-10T03:24:30.405Z,2.33
2022-10-10T03:26:58.655Z,2.53
2022-10-10T03:29:27.011Z,3.37
2022-10-10T03:31:55.217Z,2.03
2022-10-10T03:34:23.542Z,3.83
2022-10-10T03:36:51.828Z,2.80
2022-10-10T03:39:21.448Z,3.60
2022-10-10T03:41:50.599Z,5.40
2022-10-10T03:44:19.309Z,4.20
2022-10-10T03:46:47.557Z,2.20
2022-10-10T03:49:15.815Z,2.57
2022-10-10T03:51:44.229Z,1.77
2022-10-10T03:54:12.504Z,2.17
2022-10-10T03:56:42.143Z,5.97
2022-10-10T03:59:10.364Z,5.03
2022-10-10T04:01:38.692Z,2.00
2022-10-10T04:04:07.039Z,3.87
2022-10-10T04:06:35.435Z,2.70
2022-10-10T04:09:04.433Z,3.17
2022-10-10T04:11:33.355Z,8.63
2022-10-10T04:14:02.996Z,3.10
2022-10-10T04:16:31.257Z,4.07
2022-10-10T04:18:59.472Z,3.17
2022-10-10T04:21:27.707Z,5.90
2022-10-10T04:23:55.950Z,4.47
2022-10-10T04:26:24.229Z,3.10
2022-10-10T04:28:52.477Z,4.27
2022-10-10T04:31:22.039Z,4.30
2022-10-10T04:33:50.291Z,3.13
2022-10-10T04:36:18.508Z,4.03
2022-10-10T04:38:47.207Z,8.97
2022-10-10T04:41:15.596Z,3.47
2022-10-10T04:43:43.849Z,2.93
2022-10-10T04:46:12.108Z,5.77
2022-10-10T04:48:41.725Z,5.03
2022-10-10T04:51:12.109Z,3.90
2022-10-10T04:53:45.786Z,3.03
2022-10-10T04:56:16.720Z,3.73
2022-10-10T04:58:44.973Z,3.57
2022-10-10T05:01:13.213Z,2.60
2022-10-10T05:03:42.838Z,4.07
2022-10-10T05:06:11.107Z,3.73
2022-10-10T05:08:39.432Z,4.80
2022-10-10T05:11:07.823Z,2.37
2022-10-10T05:13:36.050Z,2.53
2022-10-10T05:16:04.318Z,3.67
2022-10-10T05:18:32.569Z,2.73
2022-10-10T05:21:03.874Z,2.93
2022-10-10T05:23:32.345Z,4.60
2022-10-10T05:26:00.752Z,3.53
2022-10-10T05:28:29.203Z,3.50
2022-10-10T05:30:57.488Z,5.87
2022-10-10T05:33:25.741Z,3.37
2022-10-10T05:35:53.956Z,3.43
2022-10-10T05:38:23.537Z,2.60
2022-10-10T05:40:51.754Z,3.00
2022-10-10T05:43:19.981Z,2.60
2022-10-10T05:45:48.285Z,3.40
2022-10-10T05:48:16.459Z,4.73
2022-10-10T05:50:50.275Z,4.27
2022-10-10T05:53:18.702Z,5.87
2022-10-10T05:55:48.343Z,6.00
2022-10-10T05:58:17.015Z,5.60
2022-10-10T06:00:47.615Z,4.07
2022-10-10T06:03:17.242Z,4.53
2022-10-10T06:05:48.749Z,4.50
2022-10-10T06:08:17.095Z,4.50
2022-10-10T06:10:47.922Z,4.60
2022-10-10T06:13:23.874Z,10.33
2022-10-10T06:15:53.186Z,6.40
2022-10-10T06:18:21.519Z,4.73
2022-10-10T06:20:49.740Z,5.67
2022-10-10T06:23:18.255Z,6.90
2022-10-10T06:25:48.326Z,6.13
2022-10-10T06:28:16.652Z,6.57
2022-10-10T06:30:48.484Z,5.50
2022-10-10T06:33:19.138Z,4.10
2022-10-10T06:35:49.520Z,5.67
2022-10-10T06:38:18.746Z,7.70
2022-10-10T06:40:48.449Z,6.73
2022-10-10T06:43:18.394Z,7.60
2022-10-10T06:45:48.571Z,8.20
2022-10-10T06:48:17.198Z,7.70
2022-10-10T06:50:45.504Z,6.60
2022-10-10T06:53:13.816Z,6.63
2022-10-10T06:55:48.692Z,5.80
2022-10-10T06:58:17.003Z,7.07
2022-10-10T07:00:51.559Z,8.70
2022-10-10T07:03:20.733Z,13.53
2022-10-10T07:05:52.843Z,9.90
2022-10-10T07:08:21.780Z,11.47
2022-10-10T07:10:51.439Z,16.83
2022-10-10T07:13:20.214Z,14.20
2022-10-10T07:15:48.527Z,11.20
2022-10-10T07:18:18.948Z,10.43
2022-10-10T07:20:47.758Z,13.40
2022-10-10T07:23:16.005Z,11.00
2022-10-10T07:25:45.185Z,12.60
2022-10-10T07:28:15.153Z,12.73
2022-10-10T07:30:44.982Z,12.47
2022-10-10T07:33:13.731Z,15.03
2022-10-10T07:35:42.294Z,10.30
2022-10-10T07:38:12.479Z,16.37
2022-10-10T07:40:41.664Z,17.67
2022-10-10T07:43:09.968Z,14.47
2022-10-10T07:45:39.617Z,15.70
2022-10-10T07:48:07.874Z,15.33
2022-10-10T07:50:36.422Z,12.20
2022-10-10T07:53:04.626Z,14.90
2022-10-10T07:55:32.883Z,15.07
2022-10-10T07:58:03.669Z,16.43
2022-10-10T08:00:33.269Z,13.93
2022-10-10T08:03:03.067Z,16.90
2022-10-10T08:05:31.335Z,13.97
2022-10-10T08:07:59.738Z,16.43
2022-10-10T08:10:28.812Z,15.17
2022-10-10T08:12:57.215Z,13.77
2022-10-10T08:15:26.907Z,17.00
2022-10-10T08:17:57.464Z,15.80
2022-10-10T08:20:27.128Z,15.83
2022-10-10T08:22:55.437Z,16.63
2022-10-10T08:25:23.832Z,17.33
2022-10-10T08:27:52.125Z,18.87
2022-10-10T08:30:20.416Z,15.03
2022-10-10T08:32:48.924Z,19.20
2022-10-10T08:35:17.688Z,14.53
2022-10-10T08:37:47.396Z,15.07
2022-10-10T08:40:17.652Z,16.17
2022-10-10T08:42:52.832Z,16.00
2022-10-10T08:45:25.944Z,14.63
2022-10-10T08:47:57.771Z,16.20
2022-10-10T08:50:30.779Z,14.53
2022-10-10T08:53:05.903Z,17.63
2022-10-10T08:55:36.203Z,14.83
2022-10-10T08:58:13.224Z,15.80
2022-10-10T09:00:46.398Z,15.70
2022-10-10T09:03:25.569Z,18.00
2022-10-10T09:06:23.113Z,17.70
2022-10-10T09:09:01.530Z,14.63
2022-10-10T09:11:45.285Z,14.20
2022-10-10T09:14:26.406Z,12.87
2022-10-10T09:17:01.748Z,15.60
2022-10-10T09:19:43.813Z,15.10
2022-10-10T09:22:16.369Z,15.17
2022-10-10T09:24:51.228Z,17.30
2022-10-10T09:27:25.544Z,16.40
2022-10-10T09:30:00.087Z,15.90
2022-10-10T09:32:34.911Z,15.30
2022-10-10T09:35:15.887Z,16.10
2022-10-10T09:37:47.665Z,16.03
2022-10-10T09:40:25.505Z,15.07
2022-10-10T09:42:54.191Z,14.00
2022-10-10T09:45:29.405Z,13.57
2022-10-10T09:47:58.067Z,16.80
2022-10-10T09:50:26.420Z,17.07
2022-10-10T09:52:54.851Z,15.80
2022-10-10T09:55:30.955Z,15.97
2022-10-10T09:58:13.503Z,15.60
2022-10-10T10:00:41.877Z,16.10
2022-10-10T10:03:16.347Z,19.27
2022-10-10T10:05:48.271Z,16.13
2022-10-10T10:08:23.500Z,17.67
2022-10-10T10:10:58.021Z,18.93
2022-10-10T10:13:31.511Z,16.67
2022-10-10T10:16:10.634Z,16.37
2022-10-10T10:18:44.448Z,16.27
2022-10-10T10:21:19.503Z,13.63
2022-10-10T10:23:58.089Z,17.47
2022-10-10T10:26:33.559Z,14.93
2022-10-10T10:29:01.864Z,16.60
2022-10-10T10:31:56.126Z,15.30
2022-10-10T10:34:56.053Z,15.10
2022-10-10T10:37:28.956Z,14.63
2022-10-10T10:40:29.830Z,15.10
2022-10-10T10:43:26.772Z,15.93
2022-10-10T10:46:10.855Z,17.60
2022-10-10T10:48:46.294Z,15.27
2022-10-10T10:52:01.535Z,14.50
2022-10-10T10:54:48.470Z,15.10
2022-10-10T10:57:32.198Z,16.33
2022-10-10T11:00:21.060Z,14.87
2022-10-10T11:03:35.225Z,15.43
2022-10-10T11:06:07.849Z,13.70
2022-10-10T11:08:59.070Z,14.03
2022-10-10T11:11:47.022Z,14.37
2022-10-10T11:14:41.140Z,14.40
2022-10-10T11:17:19.811Z,13.37
2022-10-10T11:19:56.920Z,13.50
2022-10-10T11:22:31.036Z,12.70
2022-10-10T11:25:05.154Z,13.33
2022-10-10T11:27:40.718Z,13.03
2022-10-10T11:30:16.267Z,12.37
2022-10-10T11:32:52.632Z,13.13
2022-10-10T11:35:34.935Z,12.53
2022-10-10T11:38:14.844Z,12.17
2022-10-10T11:40:56.641Z,11.73
2022-10-10T11:43:37.965Z,12.23
2022-10-10T11:46:17.690Z,11.73
2022-10-10T11:48:56.179Z,11.23
2022-10-10T11:52:31.879Z,11.53
2022-10-10T11:55:00.751Z,12.00
2022-10-10T11:57:35.514Z,11.40
2022-10-10T12:00:10.808Z,12.40
2022-10-10T12:02:41.411Z,10.83
2022-10-10T12:05:23.486Z,11.33
2022-10-10T12:08:11.498Z,11.17
2022-10-10T12:10:49.252Z,11.07
2022-10-10T12:13:29.867Z,10.13
2022-10-10T12:16:03.106Z,11.07
2022-10-10T12:18:40.850Z,11.40
2022-10-10T12:21:14.119Z,10.87
2022-10-10T12:23:43.633Z,11.10
2022-10-10T12:26:17.721Z,10.90
2022-10-10T12:29:05.756Z,10.57
2022-10-10T12:31:38.466Z,12.50
2022-10-10T12:34:16.910Z,12.70
2022-10-10T12:37:25.941Z,10.77
2022-10-10T12:40:21.247Z,12.93
2022-10-10T12:43:24.215Z,16.47
2022-10-10T12:46:22.119Z,10.90
2022-10-10T12:49:08.166Z,11.10
2022-10-10T12:51:38.133Z,11.17
2022-10-10T12:54:08.649Z,10.73
2022-10-10T12:56:44.719Z,12.10
2022-10-10T12:59:24.349Z,11.87
2022-10-10T13:01:57.879Z,11.37
2022-10-10T13:04:28.439Z,10.73
2022-10-10T13:06:59.780Z,11.10
2022-10-10T13:09:35.733Z,12.70
2022-10-10T13:12:07.451Z,14.40
2022-10-10T13:14:42.148Z,12.33
2022-10-10T13:17:29.544Z,13.00
2022-10-10T13:20:00.384Z,11.37
2022-10-10T13:22:32.105Z,12.80
2022-10-10T13:25:05.287Z,11.63
2022-10-10T13:27:35.871Z,11.93
2022-10-10T13:30:06.657Z,12.27
2022-10-10T13:32:37.346Z,10.67
2022-10-10T13:35:08.785Z,11.03
2022-10-10T13:37:37.402Z,11.57
2022-10-10T13:40:15.069Z,12.23
2022-10-10T13:42:43.942Z,11.93
2022-10-10T13:45:36.334Z,10.73
2022-10-10T13:48:29.232Z,10.80
2022-10-10T13:51:05.094Z,10.13
2022-10-10T13:53:37.811Z,10.50
2022-10-10T13:56:14.581Z,11.53
2022-10-10T13:58:47.403Z,9.93
2022-10-10T14:01:36.379Z,10.17
2022-10-10T14:04:19.371Z,10.17
2022-10-10T14:07:00.068Z,10.50
2022-10-10T14:09:33.291Z,11.00
2022-10-10T14:12:06.532Z,10.27
2022-10-10T14:14:41.578Z,10.67
2022-10-10T14:17:11.906Z,10.10
2022-10-10T14:19:41.238Z,10.67
2022-10-10T14:22:09.819Z,13.77
2022-10-10T14:24:38.195Z,10.80
2022-10-10T14:27:15.798Z,11.63
2022-10-10T14:29:44.397Z,11.20
2022-10-10T14:32:13.584Z,11.43
2022-10-10T14:34:42.656Z,12.87
2022-10-10T14:37:20.268Z,8.83
2022-10-10T14:39:48.975Z,9.70
2022-10-10T14:42:21.507Z,10.10
2022-10-10T14:44:50.202Z,9.83
2022-10-10T14:47:20.155Z,9.20
2022-10-10T14:49:48.562Z,8.70
2022-10-10T14:52:17.104Z,11.87
2022-10-10T14:54:45.417Z,9.93
2022-10-10T14:57:14.788Z,9.97
2022-10-10T14:59:46.135Z,8.43
2022-10-10T15:02:22.196Z,8.27
2022-10-10T15:07:30.396Z,13.77
2022-10-10T15:12:47.300Z,54.93
2022-10-10T15:15:17.166Z,57.13
2022-10-10T15:17:45.687Z,80.93
2022-10-10T15:20:14.956Z,49.17
2022-10-10T15:22:46.038Z,25.93
2022-10-10T15:25:14.588Z,14.73
2022-10-10T15:27:42.907Z,10.17
2022-10-10T15:30:12.540Z,20.13
2022-10-10T15:32:42.662Z,16.23
2022-10-10T15:35:17.221Z,17.53
2022-10-10T15:37:46.665Z,9.63
2022-10-10T15:40:17.333Z,11.77
2022-10-10T15:42:45.638Z,11.60
2022-10-10T15:45:19.369Z,13.67
2022-10-10T15:48:01.623Z,11.83
2022-10-10T15:50:30.081Z,10.67
2022-10-10T15:52:58.379Z,11.93
2022-10-10T15:55:26.672Z,14.60
2022-10-10T15:57:55.007Z,13.60
2022-10-10T16:00:23.485Z,12.87
2022-10-10T16:02:51.765Z,11.60
2022-10-10T16:05:21.523Z,11.10
2022-10-10T16:07:52.903Z,11.27
2022-10-10T16:10:21.203Z,12.13
2022-10-10T16:12:49.481Z,10.90
2022-10-10T16:15:18.011Z,13.03
2022-10-10T16:17:46.314Z,12.00
2022-10-10T16:20:14.939Z,17.67
2022-10-10T16:22:44.616Z,12.00
2022-10-10T16:25:28.341Z,14.30
2022-10-10T16:27:56.655Z,16.37
2022-10-10T16:30:24.956Z,20.03
2022-10-10T16:32:53.295Z,19.23
2022-10-10T16:35:21.682Z,16.20
2022-10-10T16:37:51.312Z,14.87
2022-10-10T16:40:19.819Z,15.03
2022-10-10T16:42:48.153Z,10.90
2022-10-10T16:45:16.521Z,10.60
2022-10-10T16:47:44.833Z,11.03
2022-10-10T16:50:13.553Z,11.13
2022-10-10T16:52:41.892Z,11.80
2022-10-10T16:55:12.319Z,9.73
2022-10-10T16:57:41.270Z,9.90
2022-10-10T17:00:12.013Z,9.40
2022-10-10T17:02:42.262Z,11.57
2022-10-10T17:05:11.239Z,8.53
2022-10-10T17:07:39.490Z,10.40
2022-10-10T17:10:08.985Z,14.70
2022-10-10T17:12:38.597Z,11.23
2022-10-10T17:15:08.622Z,14.03
2022-10-10T17:17:38.131Z,16.30
2022-10-10T17:20:08.256Z,18.13
2022-10-10T17:22:37.513Z,15.80
2022-10-10T17:25:07.124Z,15.90
2022-10-10T17:27:35.942Z,17.00
2022-10-10T17:30:07.145Z,14.87
2022-10-10T17:32:35.445Z,11.57
2022-10-10T17:35:03.804Z,13.60
2022-10-10T17:37:32.236Z,13.47
2022-10-10T17:40:00.523Z,12.53
2022-10-10T17:42:28.815Z,10.40
2022-10-10T17:44:59.429Z,10.30
2022-10-10T17:47:29.578Z,13.00
2022-10-10T17:49:57.875Z,12.23
2022-10-10T17:52:26.434Z,10.10
2022-10-10T17:54:54.720Z,9.63
2022-10-10T17:57:23.067Z,10.97
2022-10-10T17:59:51.332Z,9.33
2022-10-10T18:02:20.464Z,10.43
2022-10-10T18:04:50.106Z,10.13
2022-10-10T18:07:18.883Z,9.87
2022-10-10T18:09:47.492Z,9.60
2022-10-10T18:12:15.730Z,11.93
2022-10-10T18:14:44.157Z,8.87
2022-10-10T18:17:13.940Z,9.83
2022-10-10T18:19:42.260Z,12.70
2022-10-10T18:22:11.959Z,11.87
2022-10-10T18:24:40.495Z,13.20
2022-10-10T18:27:08.807Z,12.93
2022-10-10T18:29:38.201Z,14.20
2022-10-10T18:32:07.425Z,14.40
2022-10-10T18:34:35.841Z,13.50
2022-10-10T18:37:04.810Z,16.73
2022-10-10T18:39:35.985Z,12.97
2022-10-10T18:42:04.386Z,11.87
2022-10-10T18:44:32.836Z,13.47
2022-10-10T18:47:01.216Z,14.40
2022-10-10T18:49:29.628Z,13.83
2022-10-10T18:51:57.944Z,14.70
2022-10-10T18:54:27.458Z,16.23
2022-10-10T18:56:57.187Z,14.13
2022-10-10T18:59:25.538Z,13.00
2022-10-10T19:01:54.031Z,11.70
2022-10-10T19:04:22.888Z,10.97
2022-10-10T19:06:57.128Z,11.00
2022-10-10T19:09:26.822Z,11.63
2022-10-10T19:11:56.696Z,10.30
2022-10-10T19:14:25.087Z,9.70
2022-10-10T19:16:53.389Z,11.83
2022-10-10T19:19:22.110Z,17.63
2022-10-10T19:21:52.250Z,14.40
2022-10-10T19:24:22.365Z,14.63
2022-10-10T19:26:53.479Z,9.57
2022-10-10T19:29:24.161Z,10.20
2022-10-10T19:31:52.806Z,9.57
2022-10-10T19:34:21.284Z,10.63
2022-10-10T19:36:49.548Z,9.53
2022-10-10T19:39:17.816Z,8.70
2022-10-10T19:41:46.134Z,10.73
2022-10-10T19:44:14.375Z,10.90
2022-10-10T19:46:44.069Z,10.77
2022-10-10T19:49:12.703Z,10.60
2022-10-10T19:51:40.969Z,13.00
2022-10-10T19:54:09.287Z,10.80
2022-10-10T19:56:37.519Z,9.43
2022-10-10T19:59:06.790Z,9.97
2022-10-10T20:01:35.484Z,8.47
2022-10-10T20:04:05.298Z,9.93
2022-10-10T20:06:33.539Z,9.77
2022-10-10T20:09:01.819Z,9.63
2022-10-10T20:11:31.043Z,11.20
2022-10-10T20:13:59.476Z,11.27
2022-10-10T20:16:28.409Z,9.37
2022-10-10T20:18:58.511Z,9.87
2022-10-10T20:21:31.489Z,10.47
2022-10-10T20:24:01.252Z,8.47
2022-10-10T20:26:29.615Z,8.87
2022-10-10T20:28:58.288Z,8.40
2022-10-10T20:31:29.361Z,8.73
2022-10-10T20:34:01.013Z,10.23
2022-10-10T20:36:32.535Z,8.20
2022-10-10T20:39:04.792Z,7.60
2022-10-10T20:41:34.747Z,8.70
2022-10-10T20:44:05.720Z,7.90
2022-10-10T20:46:36.346Z,8.93
2022-10-10T20:49:08.110Z,11.13
2022-10-10T20:51:37.733Z,8.77
2022-10-10T20:54:07.419Z,12.17
2022-10-10T20:56:36.888Z,9.37
2022-10-10T20:59:06.893Z,8.60
2022-10-10T21:01:36.208Z,8.17
2022-10-10T21:04:05.240Z,8.00
2022-10-10T21:06:37.172Z,8.00
2022-10-10T21:09:09.514Z,7.83
2022-10-10T21:11:39.104Z,9.40
2022-10-10T21:14:07.939Z,10.37
2022-10-10T21:16:39.196Z,9.37
2022-10-10T21:19:13.172Z,8.33
2022-10-10T21:21:42.776Z,9.37
2022-10-10T21:24:12.321Z,8.03
2022-10-10T21:26:41.999Z,8.17
2022-10-10T21:29:10.713Z,8.13
2022-10-10T21:31:41.077Z,11.23
2022-10-10T21:34:15.562Z,9.07
2022-10-10T21:36:45.227Z,9.10
2022-10-10T21:39:16.099Z,10.93
2022-10-10T21:41:44.662Z,8.57
2022-10-10T21:44:13.014Z,9.97
2022-10-10T21:46:41.261Z,12.10
2022-10-10T21:49:12.912Z,8.73
2022-10-10T21:51:46.461Z,8.60
2022-10-10T21:54:15.256Z,7.83
2022-10-10T21:56:43.534Z,9.43
2022-10-10T21:59:12.757Z,8.57
2022-10-10T22:01:41.098Z,9.07
2022-10-10T22:04:09.406Z,9.77
2022-10-10T22:06:38.271Z,7.73
2022-10-10T22:09:07.974Z,11.27
2022-10-10T22:11:36.407Z,7.87
2022-10-10T22:14:05.421Z,8.77
2022-10-10T22:16:35.297Z,8.10
2022-10-10T22:19:04.267Z,8.00
2022-10-10T22:21:34.967Z,9.80
2022-10-10T22:24:07.877Z,8.27
2022-10-10T22:26:36.916Z,8.00
2022-10-10T22:29:05.685Z,8.30
2022-10-10T22:31:35.638Z,7.73
2022-10-10T22:34:04.195Z,8.43
2022-10-10T22:36:32.548Z,7.40
2022-10-10T22:39:00.794Z,7.33
2022-10-10T22:41:30.443Z,8.77
2022-10-10T22:43:58.805Z,9.57
2022-10-10T22:46:27.159Z,11.37
2022-10-10T22:48:55.493Z,9.17
2022-10-10T22:51:23.732Z,7.23
2022-10-10T22:53:52.242Z,8.67
2022-10-10T22:56:22.105Z,9.23
2022-10-10T22:58:52.434Z,9.10
2022-10-10T23:01:24.874Z,8.00
2022-10-10T23:03:56.178Z,7.90
2022-10-10T23:06:24.785Z,8.93
2022-10-10T23:08:53.619Z,9.50
2022-10-10T23:11:22.027Z,7.43
2022-10-10T23:13:51.631Z,7.17
2022-10-10T23:16:19.899Z,11.37
2022-10-10T23:18:48.183Z,12.30
2022-10-10T23:21:16.758Z,9.00
2022-10-10T23:23:45.016Z,9.00
2022-10-10T23:26:13.801Z,10.37
2022-10-10T23:28:44.759Z,12.73
2022-10-10T23:31:15.036Z,10.93
2022-10-10T23:33:44.335Z,13.73
2022-10-10T23:36:15.559Z,19.80
2022-10-10T23:38:44.784Z,24.27
2022-10-10T23:41:14.540Z,26.33
2022-10-10T23:43:42.826Z,15.57
2022-10-10T23:46:11.142Z,20.43
2022-10-10T23:48:40.926Z,16.00
2022-10-10T23:51:09.736Z,16.10
2022-10-10T23:53:38.348Z,12.53
2022-10-10T23:56:07.564Z,15.53
2022-10-10T23:58:36.485Z,13.13
